createdAt,value
2022-08-08T00:00:56.445Z,41.71
2022-08-08T00:03:34.076Z,42.05
2022-08-08T00:06:09.658Z,41.94
2022-08-08T00:08:48.880Z,41.82
2022-08-08T00:12:02.803Z,42.13
2022-08-08T00:14:48.503Z,41.83
2022-08-08T00:18:03.293Z,41.87
2022-08-08T00:20:33.429Z,42.05
2022-08-08T00:23:06.225Z,41.80
2022-08-08T00:25:44.926Z,41.81
2022-08-08T00:28:35.211Z,41.82
2022-08-08T00:32:20.713Z,41.98
2022-08-08T00:34:18.118Z,42.08
2022-08-08T00:36:51.637Z,41.91
2022-08-08T00:41:07.076Z,41.81
2022-08-08T00:42:30.261Z,42.05
2022-08-08T00:45:27.066Z,41.86
2022-08-08T00:48:02.142Z,41.88
2022-08-08T00:50:36.041Z,42.06
2022-08-08T00:53:24.323Z,42.07
2022-08-08T00:56:11.204Z,41.99
2022-08-08T00:58:54.516Z,41.85
2022-08-08T01:01:39.367Z,42.13
2022-08-08T01:04:29.877Z,42.12
2022-08-08T01:07:34.482Z,42.02
2022-08-08T01:10:52.426Z,42.01
2022-08-08T01:13:53.115Z,42.12
2022-08-08T01:16:37.356Z,41.94
2022-08-08T01:19:52.344Z,42.15
2022-08-08T01:22:44.723Z,42.14
2022-08-08T01:25:40.158Z,42.03
2022-08-08T01:28:34.764Z,42.00
2022-08-08T01:32:13.741Z,41.93
2022-08-08T01:34:54.696Z,41.94
2022-08-08T01:37:56.916Z,41.94
2022-08-08T01:40:37.628Z,41.87
2022-08-08T01:43:10.158Z,41.92
2022-08-08T01:46:00.390Z,42.04
2022-08-08T01:48:48.283Z,41.82
2022-08-08T01:52:43.812Z,41.94
2022-08-08T01:56:08.767Z,42.06
2022-08-08T01:57:21.569Z,42.28
2022-08-08T02:00:24.931Z,42.16
2022-08-08T02:03:54.426Z,42.22
2022-08-08T02:06:59.445Z,42.16
2022-08-08T02:10:04.205Z,42.19
2022-08-08T02:13:53.243Z,42.28
2022-08-08T02:16:35.608Z,42.22
2022-08-08T02:19:56.882Z,42.06
2022-08-08T02:22:31.856Z,42.00
2022-08-08T02:25:28.223Z,42.21
2022-08-08T02:28:11.196Z,42.25
2022-08-08T02:31:53.995Z,42.29
2022-08-08T02:35:07.660Z,42.25
2022-08-08T02:37:52.278Z,42.11
2022-08-08T02:40:38.135Z,42.03
2022-08-08T02:44:38.061Z,42.12
2022-08-08T02:47:17.050Z,42.22
2022-08-08T02:50:22.207Z,41.93
2022-08-08T02:53:21.561Z,42.09
2022-08-08T02:56:08.794Z,42.02
2022-08-08T02:59:17.189Z,42.19
2022-08-08T03:02:44.016Z,42.06
2022-08-08T03:05:47.293Z,42.12
2022-08-08T03:08:34.043Z,42.19
2022-08-08T03:11:47.778Z,41.95
2022-08-08T03:15:56.571Z,42.21
2022-08-08T03:17:41.289Z,42.01
2022-08-08T03:20:10.518Z,42.14
2022-08-08T03:22:48.199Z,42.08
2022-08-08T03:25:33.859Z,42.02
2022-08-08T03:28:19.038Z,42.11
2022-08-08T03:30:48.940Z,42.11
2022-08-08T03:33:55.190Z,42.20
2022-08-08T03:36:05.324Z,41.81
2022-08-08T03:38:58.464Z,42.00
2022-08-08T03:42:12.052Z,42.13
2022-08-08T03:44:17.798Z,41.93
2022-08-08T03:46:47.468Z,42.12
2022-08-08T03:49:58.847Z,42.01
2022-08-08T03:52:05.300Z,41.87
2022-08-08T03:54:51.612Z,41.96
2022-08-08T03:58:30.720Z,41.87
2022-08-08T04:00:18.181Z,41.92
2022-08-08T04:02:57.011Z,42.01
2022-08-08T04:05:36.284Z,41.89
2022-08-08T04:08:06.820Z,42.11
2022-08-08T04:10:34.445Z,41.75
2022-08-08T04:13:08.201Z,42.06
2022-08-08T04:16:03.872Z,42.14
2022-08-08T04:18:31.596Z,41.90
2022-08-08T04:20:58.751Z,42.07
2022-08-08T04:23:25.283Z,41.98
2022-08-08T04:26:04.086Z,42.21
2022-08-08T04:28:40.565Z,41.99
2022-08-08T04:31:09.405Z,42.18
2022-08-08T04:33:42.057Z,42.11
2022-08-08T04:36:08.762Z,41.93
2022-08-08T04:38:35.277Z,41.93
2022-08-08T04:41:02.030Z,42.11
2022-08-08T04:43:32.342Z,41.96
2022-08-08T04:46:14.531Z,42.25
2022-08-08T04:48:41.422Z,42.17
2022-08-08T04:51:09.071Z,42.20
2022-08-08T04:54:36.541Z,42.11
2022-08-08T04:56:23.115Z,42.00
2022-08-08T04:58:50.615Z,41.94
2022-08-08T05:01:17.383Z,41.94
2022-08-08T05:04:09.956Z,42.00
2022-08-08T05:06:31.065Z,42.22
2022-08-08T05:09:02.831Z,42.14
2022-08-08T05:11:39.481Z,42.09
2022-08-08T05:14:08.523Z,42.16
2022-08-08T05:16:55.001Z,42.17
2022-08-08T05:20:09.841Z,42.27
2022-08-08T05:22:12.004Z,42.07
2022-08-08T05:24:38.853Z,42.02
2022-08-08T05:27:06.771Z,42.13
2022-08-08T05:29:35.822Z,42.22
2022-08-08T05:32:06.618Z,42.24
2022-08-08T05:34:36.886Z,42.02
2022-08-08T05:37:16.263Z,41.96
2022-08-08T05:39:55.560Z,42.01
2022-08-08T05:42:41.294Z,42.04
2022-08-08T05:45:10.312Z,41.84
2022-08-08T05:48:01.370Z,42.05
2022-08-08T05:50:36.098Z,41.86
2022-08-08T05:53:55.362Z,41.90
2022-08-08T05:56:11.576Z,41.84
2022-08-08T05:58:36.514Z,41.61
2022-08-08T06:01:03.386Z,41.55
2022-08-08T06:03:31.651Z,41.67
2022-08-08T06:06:05.092Z,41.78
2022-08-08T06:08:54.636Z,41.80
2022-08-08T06:11:21.734Z,41.60
2022-08-08T06:13:49.253Z,41.75
2022-08-08T06:16:16.920Z,41.68
2022-08-08T06:18:45.777Z,41.57
2022-08-08T06:21:32.342Z,41.73
2022-08-08T06:24:03.455Z,41.62
2022-08-08T06:26:44.562Z,41.55
2022-08-08T06:29:49.532Z,41.57
2022-08-08T06:32:15.332Z,41.71
2022-08-08T06:34:56.620Z,41.62
2022-08-08T06:37:37.374Z,41.58
2022-08-08T06:40:12.820Z,41.56
2022-08-08T06:42:52.165Z,41.34
2022-08-08T06:45:21.404Z,41.63
2022-08-08T06:47:52.136Z,41.29
2022-08-08T06:50:31.414Z,41.29
2022-08-08T06:53:01.355Z,41.54
2022-08-08T06:55:41.738Z,41.25
2022-08-08T06:58:08.574Z,41.32
2022-08-08T07:00:36.162Z,41.30
2022-08-08T07:03:09.757Z,41.10
2022-08-08T07:06:01.836Z,41.25
2022-08-08T07:08:34.837Z,41.24
2022-08-08T07:11:01.317Z,41.16
2022-08-08T07:13:39.245Z,41.13
2022-08-08T07:16:51.262Z,41.29
2022-08-08T07:19:44.389Z,41.61
2022-08-08T07:22:18.801Z,41.56
2022-08-08T07:24:52.843Z,41.47
2022-08-08T07:27:35.526Z,41.45
2022-08-08T07:30:14.896Z,41.45
2022-08-08T07:32:44.679Z,41.73
2022-08-08T07:35:15.021Z,41.66
2022-08-08T07:37:56.532Z,41.72
2022-08-08T07:40:29.053Z,41.58
2022-08-08T07:42:56.724Z,41.56
2022-08-08T07:45:23.536Z,41.66
2022-08-08T07:50:21.955Z,41.46
2022-08-08T07:52:57.680Z,41.76
2022-08-08T07:55:29.272Z,41.49
2022-08-08T07:58:16.689Z,41.41
2022-08-08T08:00:50.384Z,41.63
2022-08-08T08:03:23.732Z,41.75
2022-08-08T08:05:51.772Z,41.61
2022-08-08T08:08:20.913Z,41.57
2022-08-08T08:10:50.992Z,41.39
2022-08-08T08:13:42.918Z,41.65
2022-08-08T08:16:19.399Z,41.54
2022-08-08T08:18:55.882Z,41.44
2022-08-08T08:21:35.515Z,41.58
2022-08-08T08:24:10.668Z,41.63
2022-08-08T08:26:39.029Z,41.53
2022-08-08T08:29:16.554Z,41.42
2022-08-08T08:31:45.989Z,41.40
2022-08-08T08:34:23.868Z,41.19
2022-08-08T08:36:58.824Z,41.12
2022-08-08T08:39:25.388Z,41.31
2022-08-08T08:42:12.009Z,40.95
2022-08-08T08:44:39.910Z,41.04
2022-08-08T08:47:08.956Z,41.29
2022-08-08T08:49:36.921Z,40.89
2022-08-08T08:52:10.026Z,41.07
2022-08-08T08:54:38.511Z,41.15
2022-08-08T08:57:14.491Z,41.04
2022-08-08T08:59:59.991Z,40.71
2022-08-08T09:02:30.519Z,41.12
2022-08-08T09:04:59.316Z,40.96
2022-08-08T09:07:39.241Z,40.71
2022-08-08T09:10:17.493Z,40.49
2022-08-08T09:12:46.166Z,40.57
2022-08-08T09:15:12.918Z,40.61
2022-08-08T09:17:52.346Z,40.31
2022-08-08T09:22:00.862Z,40.62
2022-08-08T09:23:11.209Z,40.56
2022-08-08T09:25:54.563Z,40.14
2022-08-08T09:28:37.244Z,40.46
2022-08-08T09:31:14.906Z,40.43
2022-08-08T09:34:15.442Z,40.62
2022-08-08T09:36:36.067Z,40.26
2022-08-08T09:39:10.067Z,40.29
2022-08-08T09:41:54.931Z,40.44
2022-08-08T09:45:04.006Z,40.23
2022-08-08T09:48:09.828Z,40.47
2022-08-08T09:50:28.308Z,40.45
2022-08-08T09:52:58.416Z,40.10
2022-08-08T09:55:51.423Z,40.44
2022-08-08T09:58:26.142Z,40.41
2022-08-08T10:01:02.714Z,39.98
2022-08-08T10:03:41.216Z,40.22
2022-08-08T10:06:17.607Z,40.48
2022-08-08T10:08:47.817Z,40.47
2022-08-08T10:12:26.351Z,40.02
2022-08-08T10:14:28.343Z,39.83
2022-08-08T10:16:58.643Z,39.68
2022-08-08T10:19:45.862Z,40.01
2022-08-08T10:22:20.862Z,39.87
2022-08-08T10:24:47.700Z,39.81
2022-08-08T10:27:15.130Z,39.86
2022-08-08T10:30:01.337Z,39.73
2022-08-08T10:32:39.062Z,39.93
2022-08-08T10:35:20.147Z,40.18
2022-08-08T10:38:02.525Z,39.94
2022-08-08T10:40:32.532Z,40.06
2022-08-08T10:43:01.876Z,39.96
2022-08-08T10:45:28.475Z,39.87
2022-08-08T10:47:56.997Z,40.20
2022-08-08T10:50:35.345Z,39.86
2022-08-08T10:53:07.503Z,39.85
2022-08-08T10:55:40.480Z,39.80
2022-08-08T10:58:11.980Z,39.67
2022-08-08T11:00:48.614Z,39.74
2022-08-08T11:03:36.952Z,39.91
2022-08-08T11:06:16.660Z,40.05
2022-08-08T11:08:53.133Z,39.83
2022-08-08T11:11:32.651Z,40.01
2022-08-08T11:14:08.090Z,40.21
2022-08-08T11:16:42.372Z,40.15
2022-08-08T11:19:15.755Z,40.37
2022-08-08T11:21:56.175Z,39.65
2022-08-08T11:24:23.682Z,39.81
2022-08-08T11:26:56.981Z,39.94
2022-08-08T11:29:23.825Z,40.15
2022-08-08T11:32:08.049Z,40.01
2022-08-08T11:34:52.454Z,40.23
2022-08-08T11:38:39.569Z,40.25
2022-08-08T11:40:11.638Z,39.89
2022-08-08T11:42:38.822Z,40.11
2022-08-08T11:45:08.305Z,40.11
2022-08-08T11:47:39.878Z,39.91
2022-08-08T11:50:23.159Z,39.88
2022-08-08T11:52:50.990Z,40.17
2022-08-08T11:55:28.680Z,40.29
2022-08-08T11:58:14.679Z,40.37
2022-08-08T12:00:50.980Z,40.33
2022-08-08T12:03:21.212Z,40.22
2022-08-08T12:05:48.128Z,40.15
2022-08-08T12:08:14.693Z,40.10
2022-08-08T12:10:51.584Z,40.04
2022-08-08T12:13:37.668Z,40.36
2022-08-08T12:16:17.651Z,40.33
2022-08-08T12:18:52.027Z,40.20
2022-08-08T12:21:59.896Z,39.93
2022-08-08T12:24:21.501Z,40.07
2022-08-08T12:26:54.904Z,40.27
2022-08-08T12:29:40.156Z,40.18
2022-08-08T12:32:13.404Z,40.33
2022-08-08T12:35:04.852Z,40.06
2022-08-08T12:38:01.039Z,40.09
2022-08-08T12:41:00.955Z,40.27
2022-08-08T12:43:46.475Z,40.34
2022-08-08T12:46:25.064Z,40.18
2022-08-08T12:49:25.018Z,40.00
2022-08-08T12:51:50.029Z,39.97
2022-08-08T12:54:35.751Z,40.10
2022-08-08T12:57:20.857Z,40.22
2022-08-08T13:00:04.729Z,40.11
2022-08-08T13:02:37.833Z,40.10
2022-08-08T13:05:26.508Z,40.18
2022-08-08T13:08:15.845Z,40.18
2022-08-08T13:10:56.871Z,40.31
2022-08-08T13:13:35.413Z,40.36
2022-08-08T13:16:25.818Z,40.38
2022-08-08T13:18:58.379Z,40.23
2022-08-08T13:21:48.982Z,40.54
2022-08-08T13:24:20.864Z,40.24
2022-08-08T13:27:06.049Z,40.55
2022-08-08T13:29:47.953Z,40.16
2022-08-08T13:32:14.767Z,40.53
2022-08-08T13:34:41.954Z,40.55
2022-08-08T13:37:11.096Z,40.52
2022-08-08T13:39:55.609Z,40.49
2022-08-08T13:42:23.206Z,40.59
2022-08-08T13:44:55.480Z,40.55
2022-08-08T13:47:22.914Z,40.28
2022-08-08T13:50:36.901Z,40.52
2022-08-08T13:52:55.623Z,40.64
2022-08-08T13:55:29.685Z,40.53
2022-08-08T13:58:07.721Z,40.50
2022-08-08T14:00:45.003Z,40.88
2022-08-08T14:03:38.364Z,40.58
2022-08-08T14:06:08.547Z,40.51
2022-08-08T14:08:56.733Z,40.68
2022-08-08T14:11:29.702Z,40.60
2022-08-08T14:14:00.623Z,40.90
2022-08-08T14:16:28.904Z,40.73
2022-08-08T14:18:57.879Z,40.59
2022-08-08T14:21:48.842Z,40.75
2022-08-08T14:24:34.025Z,40.57
2022-08-08T14:27:01.522Z,40.46
2022-08-08T14:29:30.517Z,40.59
2022-08-08T14:32:09.371Z,40.48
2022-08-08T14:34:37.607Z,40.63
2022-08-08T14:37:06.058Z,40.31
2022-08-08T14:39:47.882Z,40.70
2022-08-08T14:42:16.756Z,40.45
2022-08-08T14:44:53.553Z,40.41
2022-08-08T14:47:21.593Z,40.49
2022-08-08T14:50:06.858Z,40.50
2022-08-08T14:53:05.183Z,40.60
2022-08-08T14:55:41.551Z,40.60
2022-08-08T14:58:11.864Z,40.68
2022-08-08T15:00:43.594Z,40.66
2022-08-08T15:03:14.722Z,40.43
2022-08-08T15:05:54.141Z,40.67
2022-08-08T15:08:35.107Z,40.71
2022-08-08T15:11:06.792Z,40.83
2022-08-08T15:13:39.663Z,40.46
2022-08-08T15:16:12.228Z,40.47
2022-08-08T15:18:49.886Z,40.40
2022-08-08T15:21:16.773Z,40.61
2022-08-08T15:23:43.331Z,40.50
2022-08-08T15:26:13.003Z,40.88
2022-08-08T15:28:39.768Z,40.45
2022-08-08T15:31:06.298Z,40.68
2022-08-08T15:33:35.594Z,40.44
2022-08-08T15:36:05.604Z,40.44
2022-08-08T15:38:32.584Z,40.76
2022-08-08T15:40:59.372Z,40.48
2022-08-08T15:43:35.728Z,40.55
2022-08-08T15:46:03.424Z,40.87
2022-08-08T15:48:29.957Z,40.79
2022-08-08T15:51:06.311Z,40.71
2022-08-08T15:53:49.168Z,40.66
2022-08-08T15:56:16.773Z,40.82
2022-08-08T15:58:48.886Z,40.87
2022-08-08T16:01:16.219Z,40.66
2022-08-08T16:03:42.753Z,40.76
2022-08-08T16:06:14.325Z,40.73
2022-08-08T16:09:02.487Z,40.84
2022-08-08T16:13:02.803Z,40.66
2022-08-08T16:14:16.091Z,40.52
2022-08-08T16:16:59.486Z,41.00
2022-08-08T16:19:26.232Z,40.91
2022-08-08T16:21:54.022Z,40.72
2022-08-08T16:24:22.906Z,41.04
2022-08-08T16:26:50.784Z,40.76
2022-08-08T16:29:19.407Z,40.56
2022-08-08T16:32:04.081Z,40.57
2022-08-08T16:34:37.823Z,40.61
2022-08-08T16:37:06.180Z,40.90
2022-08-08T16:40:02.656Z,40.81
2022-08-08T16:42:19.583Z,40.71
2022-08-08T16:44:47.339Z,40.79
2022-08-08T16:47:40.703Z,40.99
2022-08-08T16:50:15.073Z,41.14
2022-08-08T16:55:18.389Z,41.03
2022-08-08T16:55:53.076Z,40.91
2022-08-08T16:58:20.897Z,41.08
2022-08-08T17:00:48.958Z,41.04
2022-08-08T17:03:25.209Z,41.12
2022-08-08T17:06:05.855Z,41.20
2022-08-08T17:08:52.381Z,40.97
2022-08-08T17:11:19.849Z,41.07
2022-08-08T17:14:01.100Z,41.29
2022-08-08T17:16:28.678Z,41.01
2022-08-08T17:18:55.343Z,41.24
2022-08-08T17:21:21.851Z,41.22
2022-08-08T17:24:01.301Z,41.42
2022-08-08T17:26:30.056Z,41.09
2022-08-08T17:28:57.398Z,41.25
2022-08-08T17:31:44.829Z,41.36
2022-08-08T17:34:48.796Z,41.34
2022-08-08T17:37:03.059Z,41.30
2022-08-08T17:40:04.297Z,41.21
2022-08-08T17:42:17.940Z,41.43
2022-08-08T17:44:45.190Z,41.27
2022-08-08T17:47:23.405Z,41.26
2022-08-08T17:49:52.551Z,41.33
2022-08-08T17:52:19.959Z,41.50
2022-08-08T17:54:51.899Z,41.43
2022-08-08T17:57:22.992Z,41.50
2022-08-08T17:59:49.474Z,41.14
2022-08-08T18:02:21.271Z,41.39
2022-08-08T18:04:50.265Z,41.47
2022-08-08T18:08:02.259Z,41.39
2022-08-08T18:10:04.056Z,41.58
2022-08-08T18:12:30.631Z,41.67
2022-08-08T18:14:57.552Z,41.54
2022-08-08T18:18:04.748Z,41.76
2022-08-08T18:20:43.456Z,41.45
2022-08-08T18:23:00.074Z,41.32
2022-08-08T18:25:26.551Z,41.61
2022-08-08T18:28:03.782Z,41.73
2022-08-08T18:30:30.311Z,41.63
2022-08-08T18:32:58.463Z,41.57
2022-08-08T18:35:25.195Z,41.61
2022-08-08T18:38:03.689Z,41.76
2022-08-08T18:40:43.278Z,41.98
2022-08-08T18:43:16.171Z,41.60
2022-08-08T18:46:08.531Z,41.69
2022-08-08T18:48:29.962Z,41.83
2022-08-08T18:50:58.187Z,41.74
2022-08-08T18:53:25.704Z,41.77
2022-08-08T18:56:25.208Z,41.89
2022-08-08T18:58:53.526Z,41.76
2022-08-08T19:02:26.771Z,41.99
2022-08-08T19:04:10.922Z,42.10
2022-08-08T19:06:39.365Z,41.96
2022-08-08T19:09:13.293Z,41.86
2022-08-08T19:11:46.302Z,42.07
2022-08-08T19:14:13.772Z,42.29
2022-08-08T19:16:47.397Z,42.09
2022-08-08T19:19:14.772Z,42.17
2022-08-08T19:21:48.633Z,42.10
2022-08-08T19:24:38.056Z,42.17
2022-08-08T19:27:02.998Z,42.27
2022-08-08T19:29:30.538Z,42.29
2022-08-08T19:31:57.392Z,42.46
2022-08-08T19:34:35.941Z,42.39
2022-08-08T19:37:05.492Z,42.15
2022-08-08T19:39:35.259Z,42.32
2022-08-08T19:42:03.629Z,42.26
2022-08-08T19:44:43.140Z,42.20
2022-08-08T19:47:12.604Z,42.29
2022-08-08T19:49:39.359Z,42.35
2022-08-08T19:52:10.506Z,42.30
2022-08-08T19:54:38.695Z,42.53
2022-08-08T19:57:07.791Z,42.19
2022-08-08T19:59:35.203Z,42.38
2022-08-08T20:02:04.536Z,42.23
2022-08-08T20:04:33.224Z,42.42
2022-08-08T20:07:03.603Z,42.31
2022-08-08T20:09:32.219Z,42.32
2022-08-08T20:11:59.033Z,42.25
2022-08-08T20:14:34.338Z,42.50
2022-08-08T20:17:02.667Z,42.31
2022-08-08T20:19:33.503Z,42.45
2022-08-08T20:22:03.225Z,42.28
2022-08-08T20:24:31.742Z,42.63
2022-08-08T20:26:58.239Z,42.43
2022-08-08T20:29:25.902Z,42.57
2022-08-08T20:32:13.281Z,42.61
2022-08-08T20:34:47.592Z,42.36
2022-08-08T20:37:14.482Z,42.53
2022-08-08T20:39:51.147Z,42.46
2022-08-08T20:42:28.610Z,42.47
2022-08-08T20:44:55.939Z,42.66
2022-08-08T20:47:23.524Z,42.48
2022-08-08T20:49:50.840Z,42.45
2022-08-08T20:52:21.724Z,42.45
2022-08-08T20:54:49.867Z,42.71
2022-08-08T20:57:20.869Z,42.76
2022-08-08T20:59:47.790Z,42.75
2022-08-08T21:02:19.757Z,42.79
2022-08-08T21:04:52.853Z,42.67
2022-08-08T21:07:30.953Z,42.84
2022-08-08T21:10:12.891Z,42.59
2022-08-08T21:12:44.669Z,42.89
2022-08-08T21:15:16.569Z,42.73
2022-08-08T21:17:59.512Z,42.94
2022-08-08T21:20:34.357Z,42.72
2022-08-08T21:23:02.274Z,42.66
2022-08-08T21:25:29.114Z,42.87
2022-08-08T21:28:14.600Z,42.95
2022-08-08T21:30:42.649Z,43.19
2022-08-08T21:33:11.930Z,43.04
2022-08-08T21:36:18.258Z,43.25
2022-08-08T21:38:25.050Z,43.07
2022-08-08T21:40:56.414Z,43.48
2022-08-08T21:43:33.514Z,43.60
2022-08-08T21:48:08.837Z,43.46
2022-08-08T21:48:51.492Z,43.48
2022-08-08T21:51:46.043Z,43.48
2022-08-08T21:54:32.731Z,43.62
2022-08-08T21:56:53.734Z,43.57
2022-08-08T21:59:20.963Z,43.71
2022-08-08T22:01:52.182Z,43.90
2022-08-08T22:04:22.382Z,43.69
2022-08-08T22:06:51.675Z,43.72
2022-08-08T22:09:18.289Z,43.81
2022-08-08T22:12:02.397Z,43.81
2022-08-08T22:14:33.212Z,43.94
2022-08-08T22:17:01.240Z,43.77
2022-08-08T22:19:29.432Z,43.93
2022-08-08T22:21:56.788Z,43.59
2022-08-08T22:24:28.275Z,43.76
2022-08-08T22:27:01.796Z,43.99
2022-08-08T22:30:01.489Z,44.02
2022-08-08T22:32:18.266Z,43.79
2022-08-08T22:34:50.494Z,43.93
2022-08-08T22:37:49.890Z,44.03
2022-08-08T22:40:05.706Z,43.98
2022-08-08T22:42:34.589Z,44.11
2022-08-08T22:45:02.961Z,44.11
2022-08-08T22:47:37.486Z,44.22
2022-08-08T22:50:21.588Z,44.23
2022-08-08T22:53:22.414Z,44.33
2022-08-08T22:55:57.923Z,44.36
2022-08-08T22:58:27.107Z,44.31
2022-08-08T23:00:55.122Z,44.33
2022-08-08T23:03:21.707Z,44.17
2022-08-08T23:05:50.012Z,44.34
2022-08-08T23:08:17.965Z,44.22
2022-08-08T23:10:52.726Z,44.20
2022-08-08T23:13:22.302Z,44.31
2022-08-08T23:16:41.605Z,44.27
2022-08-08T23:18:40.492Z,44.17
2022-08-08T23:21:07.737Z,44.24
2022-08-08T23:23:48.678Z,44.33
2022-08-08T23:26:21.449Z,44.49
2022-08-08T23:28:48.295Z,44.41
2022-08-08T23:31:14.957Z,44.42
2022-08-08T23:34:17.630Z,44.43
2022-08-08T23:36:29.013Z,44.64
2022-08-08T23:38:55.524Z,44.56
2022-08-08T23:41:25.343Z,44.32
2022-08-08T23:43:56.438Z,44.43
2022-08-08T23:49:04.181Z,44.60
2022-08-08T23:49:15.006Z,44.54
2022-08-08T23:52:05.323Z,44.39
2022-08-08T23:54:41.192Z,44.47
2022-08-08T23:57:25.367Z,44.58
